Time;durP1;ratioP1;P1;durP2;ratioP2;P2;SDS_P1;SDS_P2;PMS_P1;PMS_P2;Temp;Humidity;BMP_temperature;BMP_pressure;BME280_temperature;BME280_humidity;BME280_pressure;Samples;Min_cycle;Max_cycle;Signal;HPM_P1;HPM_P2
2022/12/22 03:26:22;;;;;;;38.47;28.23;;;;;;;0.99;100.00;96535.66;5028078;28;20207;-71
2022/12/22 03:28:49;;;;;;;36.70;25.73;;;;;;;0.98;100.00;96527.00;5012664;28;20998;-72
2022/12/22 03:31:17;;;;;;;33.90;27.07;;;;;;;1.03;100.00;96525.75;5026960;28;20203;-70
2022/12/22 03:33:46;;;;;;;38.73;26.87;;;;;;;0.99;100.00;96510.38;5028921;28;20622;-71
2022/12/22 03:36:13;;;;;;;35.10;28.00;;;;;;;1.03;100.00;96510.94;5027082;28;20209;-69
2022/12/22 03:38:41;;;;;;;38.40;26.47;;;;;;;1.03;100.00;96510.09;4989956;28;20224;-68
2022/12/22 03:46:28;;;;;;;45.13;28.10;;;;;;;0.94;100.00;96511.75;5029773;28;20232;-73
2022/12/22 03:46:44;;;;;;;38.40;26.97;;;;;;;0.93;100.00;96500.50;5003958;28;20203;-73
2022/12/22 03:49:13;;;;;;;33.90;25.20;;;;;;;0.95;100.00;96509.00;5030393;28;20212;-71
2022/12/22 03:51:42;;;;;;;34.97;26.87;;;;;;;0.94;100.00;96504.75;5028197;28;20370;-73
2022/12/22 03:54:11;;;;;;;38.10;28.13;;;;;;;0.91;100.00;96507.66;4986819;28;20236;-71
2022/12/22 03:56:39;;;;;;;43.97;27.73;;;;;;;0.92;100.00;96498.84;5018604;28;20396;-73
2022/12/22 03:59:07;;;;;;;40.07;27.23;;;;;;;0.90;100.00;96492.13;5030811;28;20657;-72
2022/12/22 04:01:38;;;;;;;35.43;26.10;;;;;;;0.92;100.00;96498.03;4996989;28;20235;-70
2022/12/22 04:04:05;;;;;;;37.53;26.17;;;;;;;0.96;100.00;96505.44;5025772;28;20332;-73
2022/12/22 04:06:34;;;;;;;35.97;25.67;;;;;;;1.01;100.00;96494.59;5017469;28;20226;-71
2022/12/22 04:09:03;;;;;;;35.73;25.73;;;;;;;1.01;100.00;96492.78;4981981;28;20651;-74
2022/12/22 04:14:16;;;;;;;37.07;25.77;;;;;;;1.07;100.00;96493.19;4948930;28;20441;-69
2022/12/22 04:16:44;;;;;;;40.63;26.67;;;;;;;1.07;100.00;96490.56;5010037;28;20211;-71
2022/12/22 04:19:11;;;;;;;35.47;25.60;;;;;;;1.07;100.00;96487.97;5004186;28;20211;-71
2022/12/22 04:21:40;;;;;;;41.53;27.20;;;;;;;1.10;100.00;96490.28;5003621;28;20228;-71
2022/12/22 04:24:08;;;;;;;38.77;25.13;;;;;;;1.09;100.00;96478.22;5025673;28;20234;-71
2022/12/22 04:26:36;;;;;;;39.93;27.10;;;;;;;1.10;100.00;96472.88;5027048;28;20209;-74
2022/12/22 04:29:03;;;;;;;36.47;25.27;;;;;;;1.13;100.00;96488.22;4990197;28;20694;-71
2022/12/22 04:31:31;;;;;;;38.10;25.80;;;;;;;1.11;100.00;96484.94;5003011;28;20675;-71
2022/12/22 04:33:59;;;;;;;30.87;24.83;;;;;;;1.19;100.00;96488.63;5030148;28;20228;-73
2022/12/22 04:36:26;;;;;;;36.63;25.97;;;;;;;1.20;100.00;96478.06;4994397;28;20220;-71
2022/12/22 04:38:55;;;;;;;33.83;24.97;;;;;;;1.18;100.00;96490.44;5028103;28;20567;-73
2022/12/22 04:41:23;;;;;;;30.17;24.83;;;;;;;1.22;100.00;96465.69;5028198;28;20668;-71
2022/12/22 04:43:50;;;;;;;33.00;24.07;;;;;;;1.27;100.00;96478.28;4983434;28;20967;-73
2022/12/22 04:46:18;;;;;;;36.93;25.10;;;;;;;1.25;100.00;96475.00;5024168;28;20211;-71
2022/12/22 04:48:46;;;;;;;30.93;24.00;;;;;;;1.26;100.00;96474.03;5029729;28;20294;-74
2022/12/22 04:51:13;;;;;;;34.23;24.37;;;;;;;1.29;100.00;96464.16;4989038;28;20721;-73
2022/12/22 04:53:41;;;;;;;34.10;23.33;;;;;;;1.28;100.00;96472.09;5012160;28;20227;-73
2022/12/22 04:56:09;;;;;;;29.60;23.40;;;;;;;1.25;100.00;96468.00;5010827;28;20220;-71
2022/12/22 04:58:37;;;;;;;39.43;24.10;;;;;;;1.28;100.00;96452.06;4989382;28;20360;-73
2022/12/22 05:01:09;;;;;;;33.10;24.50;;;;;;;1.30;100.00;96464.94;5024520;28;20594;-71
2022/12/22 05:03:37;;;;;;;32.57;22.40;;;;;;;1.30;100.00;96442.31;5028572;28;20314;-73
2022/12/22 05:06:05;;;;;;;35.20;24.80;;;;;;;1.35;100.00;96436.66;5008326;28;20207;-72
2022/12/22 05:08:33;;;;;;;33.13;23.20;;;;;;;1.37;100.00;96436.50;5009129;28;20221;-73
2022/12/22 05:11:01;;;;;;;34.10;25.93;;;;;;;1.40;100.00;96436.22;5013064;28;20701;-71
2022/12/22 05:13:31;;;;;;;37.77;24.67;;;;;;;1.40;100.00;96430.97;5028919;28;20253;-73
2022/12/22 05:16:03;;;;;;;34.20;24.27;;;;;;;1.39;100.00;96419.72;4978760;28;20212;-71
2022/12/22 05:18:31;;;;;;;33.43;23.33;;;;;;;1.47;100.00;96426.00;5009767;28;20239;-73
2022/12/22 05:21:02;;;;;;;33.13;23.30;;;;;;;1.49;100.00;96429.31;5008661;28;20434;-72
2022/12/22 05:23:30;;;;;;;32.67;24.70;;;;;;;1.49;100.00;96430.09;5007261;28;20231;-73
2022/12/22 05:25:57;;;;;;;38.03;25.83;;;;;;;1.54;100.00;96434.91;4992639;28;20361;-73
2022/12/22 05:28:25;;;;;;;31.77;23.60;;;;;;;1.59;100.00;96417.00;5030005;28;20464;-72
2022/12/22 05:30:54;;;;;;;36.50;24.47;;;;;;;1.58;100.00;96421.44;4980016;28;20419;-71
2022/12/22 05:33:22;;;;;;;32.37;23.77;;;;;;;1.57;100.00;96425.00;5027935;28;20207;-73
2022/12/22 05:35:50;;;;;;;33.20;24.83;;;;;;;1.58;100.00;96417.97;5028558;28;20196;-71
2022/12/22 05:38:17;;;;;;;37.23;24.90;;;;;;;1.59;100.00;96414.41;4992506;28;20203;-71
2022/12/22 05:40:45;;;;;;;32.57;24.77;;;;;;;1.63;100.00;96415.75;5009016;28;20565;-71
2022/12/22 05:43:12;;;;;;;36.60;22.40;;;;;;;1.68;100.00;96415.31;5024628;28;20227;-73
2022/12/22 05:45:40;;;;;;;33.60;22.83;;;;;;;1.72;100.00;96403.59;4982879;28;20227;-71
2022/12/22 05:48:09;;;;;;;30.90;23.90;;;;;;;1.73;100.00;96405.25;5026676;28;20477;-71
2022/12/22 05:50:36;;;;;;;37.27;24.03;;;;;;;1.71;100.00;96392.34;5026242;28;20973;-72
2022/12/22 05:53:05;;;;;;;33.90;23.90;;;;;;;1.75;100.00;96407.72;5005699;28;20421;-75
2022/12/22 05:55:33;;;;;;;31.70;21.67;;;;;;;1.76;100.00;96401.53;5027115;28;20227;-73
2022/12/22 05:58:01;;;;;;;32.67;22.50;;;;;;;1.73;100.00;96393.03;5011038;28;20226;-74
2022/12/22 06:00:30;;;;;;;27.40;21.27;;;;;;;1.77;100.00;96390.91;4960088;28;20878;-72
2022/12/22 06:02:58;;;;;;;34.63;22.57;;;;;;;1.70;100.00;96377.63;5029473;28;20319;-73
2022/12/22 06:05:27;;;;;;;29.60;22.07;;;;;;;1.72;100.00;96386.16;5025833;28;20223;-71
2022/12/22 06:07:55;;;;;;;32.17;21.07;;;;;;;1.64;100.00;96387.84;5023783;28;20207;-73
2022/12/22 06:10:22;;;;;;;30.20;21.43;;;;;;;1.69;100.00;96398.69;5005781;28;20329;-71
2022/12/22 06:12:50;;;;;;;34.83;21.90;;;;;;;1.79;100.00;96385.56;5030529;28;20607;-71
2022/12/22 06:15:18;;;;;;;33.10;21.57;;;;;;;1.80;100.00;96392.44;5028412;28;20231;-71
2022/12/22 06:17:45;;;;;;;33.57;22.17;;;;;;;1.88;100.00;96395.91;4983766;28;20211;-73
2022/12/22 06:20:14;;;;;;;25.60;20.73;;;;;;;1.90;100.00;96394.97;4978666;28;20723;-73
2022/12/22 06:22:43;;;;;;;26.43;19.40;;;;;;;2.03;100.00;96395.41;5019774;28;20296;-72
2022/12/22 06:25:10;;;;;;;26.13;21.23;;;;;;;2.00;100.00;96411.41;5025560;28;20555;-73
2022/12/22 06:27:45;;;;;;;29.37;20.40;;;;;;;2.01;100.00;96411.22;5025479;28;20206;-71
2022/12/22 06:30:13;;;;;;;28.77;20.33;;;;;;;2.06;100.00;96417.78;5023508;28;20388;-72
2022/12/22 06:32:41;;;;;;;28.63;20.10;;;;;;;2.08;100.00;96405.41;5015908;28;20507;-71
2022/12/22 06:35:09;;;;;;;29.67;20.10;;;;;;;2.08;100.00;96402.78;4981622;28;20808;-72
2022/12/22 06:37:37;;;;;;;25.77;18.47;;;;;;;2.09;100.00;96401.84;5006114;28;20581;-73
2022/12/22 06:40:07;;;;;;;22.77;18.37;;;;;;;2.10;100.00;96408.72;5023358;28;20398;-73
2022/12/22 06:45:20;;;;;;;29.33;20.53;;;;;;;2.28;100.00;96409.50;5027453;28;20229;-72
2022/12/22 06:47:48;;;;;;;26.67;20.00;;;;;;;2.26;100.00;96405.38;5024826;28;20298;-73
2022/12/22 06:50:15;;;;;;;27.17;20.23;;;;;;;2.32;100.00;96417.88;4982372;28;21173;-73
2022/12/22 06:52:43;;;;;;;26.33;19.00;;;;;;;2.33;100.00;96419.53;5021600;28;20811;-71
2022/12/22 06:55:12;;;;;;;25.83;18.37;;;;;;;2.41;100.00;96413.53;5013902;28;20950;-73
2022/12/22 06:57:40;;;;;;;27.53;19.63;;;;;;;2.42;100.00;96404.69;5028851;28;20701;-72
2022/12/22 07:00:08;;;;;;;29.33;19.33;;;;;;;2.48;100.00;96411.97;5025449;28;20486;-73
2022/12/22 07:02:36;;;;;;;31.60;19.50;;;;;;;2.58;100.00;96420.53;5029700;28;20238;-73
2022/12/22 07:05:04;;;;;;;29.20;19.77;;;;;;;2.57;100.00;96423.28;5024180;28;20634;-73
2022/12/22 07:07:32;;;;;;;26.37;19.77;;;;;;;2.57;100.00;96412.81;4981544;28;20219;-73
2022/12/22 07:09:59;;;;;;;25.47;20.10;;;;;;;2.62;100.00;96405.34;5009730;28;20208;-73
2022/12/22 07:12:28;;;;;;;25.23;19.10;;;;;;;2.63;100.00;96416.63;5027924;28;21129;-73
2022/12/22 07:14:56;;;;;;;29.83;20.53;;;;;;;2.63;100.00;96406.97;5026023;28;20383;-71
2022/12/22 07:17:23;;;;;;;33.37;20.37;;;;;;;2.60;100.00;96408.13;5024860;28;20465;-71
2022/12/22 07:19:51;;;;;;;27.33;19.73;;;;;;;2.62;100.00;96407.16;5029377;28;20551;-71
2022/12/22 07:22:19;;;;;;;24.70;19.10;;;;;;;2.62;100.00;96405.34;4986790;28;20215;-73
2022/12/22 07:24:55;;;;;;;27.97;19.67;;;;;;;2.57;100.00;96402.38;5012221;28;20361;-71
2022/12/22 07:27:23;;;;;;;27.33;19.57;;;;;;;2.53;100.00;96404.47;5032718;28;20200;-71
2022/12/22 07:29:52;;;;;;;27.80;18.90;;;;;;;2.51;100.00;96392.53;5031811;28;20663;-71
2022/12/22 07:32:19;;;;;;;24.97;19.70;;;;;;;2.51;100.00;96398.59;5029314;28;20204;-71
2022/12/22 07:34:47;;;;;;;22.90;18.93;;;;;;;2.51;100.00;96398.59;5031661;28;20220;-71
2022/12/22 07:37:14;;;;;;;27.10;17.97;;;;;;;2.51;100.00;96392.53;4978286;28;20449;-73
2022/12/22 07:39:42;;;;;;;26.30;19.10;;;;;;;2.54;100.00;96392.22;5014725;28;20212;-71
2022/12/22 07:44:54;;;;;;;19.77;17.17;;;;;;;2.57;100.00;96382.28;5011242;28;20236;-71
2022/12/22 07:47:22;;;;;;;23.00;18.47;;;;;;;2.60;100.00;96388.97;5030679;28;20863;-73
2022/12/22 07:52:34;;;;;;;25.83;17.63;;;;;;;2.61;100.00;96380.16;4985025;28;20215;-73
2022/12/22 07:55:02;;;;;;;26.07;19.20;;;;;;;2.62;100.00;96373.16;5012572;28;20449;-74
2022/12/22 07:57:29;;;;;;;22.43;17.73;;;;;;;2.66;100.00;96375.31;5028218;28;20591;-73
2022/12/22 07:59:58;;;;;;;28.83;18.77;;;;;;;2.66;100.00;96369.25;5030019;28;20199;-72
2022/12/22 08:02:26;;;;;;;26.33;19.57;;;;;;;2.66;100.00;96364.84;5028025;28;20203;-72
2022/12/22 08:04:58;;;;;;;26.33;18.47;;;;;;;2.72;100.00;96366.00;5026613;28;20320;-72
2022/12/22 08:07:26;;;;;;;22.57;17.93;;;;;;;2.78;100.00;96351.50;5028965;28;20210;-72
2022/12/22 08:09:54;;;;;;;21.93;17.30;;;;;;;2.78;100.00;96360.16;4984226;28;20223;-71
2022/12/22 08:12:21;;;;;;;25.80;18.33;;;;;;;2.80;100.00;96345.13;5014543;28;20634;-74
2022/12/22 08:14:49;;;;;;;27.50;19.10;;;;;;;2.75;100.00;96339.53;5028972;28;20709;-71
2022/12/22 08:17:17;;;;;;;23.17;18.33;;;;;;;2.84;100.00;96356.09;5028690;28;20219;-74
2022/12/22 08:19:47;;;;;;;26.47;18.17;;;;;;;2.85;100.00;96350.72;5028569;28;20685;-72
2022/12/22 08:22:14;;;;;;;22.50;18.73;;;;;;;2.88;100.00;96360.88;5026018;28;20576;-73
2022/12/22 08:24:42;;;;;;;25.53;18.20;;;;;;;2.92;100.00;96358.75;4986434;28;20236;-72
2022/12/22 08:27:12;;;;;;;20.67;17.47;;;;;;;3.01;100.00;96362.25;4979701;28;20552;-71
2022/12/22 08:29:43;;;;;;;20.67;18.27;;;;;;;3.04;100.00;96367.16;5026451;28;20203;-74
2022/12/22 08:32:12;;;;;;;23.63;17.63;;;;;;;3.03;100.00;96362.91;5030932;28;20290;-74
2022/12/22 08:34:41;;;;;;;25.13;16.13;;;;;;;3.12;100.00;96361.16;5025210;28;21014;-72
2022/12/22 08:37:12;;;;;;;20.30;16.00;;;;;;;3.16;100.00;96370.31;5027894;28;20806;-74
2022/12/22 08:39:40;;;;;;;18.30;15.73;;;;;;;3.24;100.00;96369.53;5025911;28;20329;-72
2022/12/22 08:42:09;;;;;;;22.53;16.73;;;;;;;3.22;100.00;96355.75;4986884;28;20587;-74
2022/12/22 08:44:37;;;;;;;18.60;16.10;;;;;;;3.23;100.00;96363.47;5024504;28;20228;-74
2022/12/22 08:47:05;;;;;;;23.67;16.50;;;;;;;3.24;100.00;96357.25;5031405;28;20211;-74
2022/12/22 08:49:42;;;;;;;18.20;15.43;;;;;;;3.33;100.00;96358.91;5027003;28;20345;-72
2022/12/22 08:52:10;;;;;;;30.57;16.07;;;;;;;3.38;100.00;96368.09;5026305;28;20203;-73
2022/12/22 08:54:44;;;;;;;19.47;15.77;;;;;;;3.46;100.00;96368.94;5028311;28;20490;-74
2022/12/22 08:57:12;;;;;;;19.87;14.73;;;;;;;3.57;100.00;96367.00;5032415;28;20204;-72
2022/12/22 08:59:40;;;;;;;18.30;14.47;;;;;;;3.68;100.00;96371.97;4987797;28;20220;-74
2022/12/22 09:02:07;;;;;;;20.07;14.00;;;;;;;3.67;100.00;96369.50;5027337;28;20849;-74
2022/12/22 09:04:36;;;;;;;16.13;13.97;;;;;;;3.68;100.00;96360.66;5025285;28;20715;-72
2022/12/22 09:07:05;;;;;;;15.13;13.00;;;;;;;3.70;100.00;96362.16;5026245;28;20721;-74
2022/12/22 09:09:34;;;;;;;16.30;12.93;;;;;;;3.76;100.00;96363.28;5027051;28;20580;-72
2022/12/22 09:12:02;;;;;;;17.17;14.40;;;;;;;3.77;100.00;96364.91;5032253;28;20212;-73
2022/12/22 09:14:31;;;;;;;17.27;13.93;;;;;;;3.84;100.00;96367.72;4981888;28;20239;-72
2022/12/22 09:16:59;;;;;;;16.30;13.03;;;;;;;3.83;100.00;96361.69;5028835;28;20281;-74
2022/12/22 09:19:27;;;;;;;13.93;12.50;;;;;;;3.76;100.00;96351.00;5028089;28;20320;-72
2022/12/22 09:21:54;;;;;;;14.23;11.90;;;;;;;3.71;100.00;96358.53;5025644;28;20477;-73
2022/12/22 09:24:23;;;;;;;14.83;11.63;;;;;;;3.72;100.00;96354.94;5029681;28;20731;-72
2022/12/22 09:26:51;;;;;;;13.23;11.57;;;;;;;3.81;100.00;96357.56;5029392;28;20218;-74
2022/12/22 09:29:19;;;;;;;14.27;11.33;;;;;;;3.84;100.00;96363.31;4980780;28;20599;-72
2022/12/22 09:31:46;;;;;;;13.67;11.57;;;;;;;3.92;100.00;96362.50;5022865;28;20191;-73
2022/12/22 09:34:14;;;;;;;15.10;10.93;;;;;;;4.00;100.00;96362.53;5030315;28;20231;-72
2022/12/22 09:36:45;;;;;;;13.47;11.23;;;;;;;4.10;100.00;96353.66;5025291;28;20402;-72
2022/12/22 09:39:13;;;;;;;13.77;12.47;;;;;;;4.15;100.00;96348.75;5023589;28;20527;-74
2022/12/22 09:41:45;;;;;;;12.57;9.93;;;;;;;4.16;100.00;96350.38;5026072;28;20199;-73
2022/12/22 09:44:16;;;;;;;12.10;10.90;;;;;;;4.21;100.00;96342.84;4987435;28;20232;-71
2022/12/22 09:46:44;;;;;;;16.87;11.77;;;;;;;4.24;100.00;96342.50;5024289;28;20744;-71
2022/12/22 09:49:14;;;;;;;13.33;10.10;;;;;;;4.35;100.00;96338.75;5030548;28;20207;-73
2022/12/22 09:51:44;;;;;;;12.70;10.50;;;;;;;4.33;100.00;96340.72;5022239;28;20582;-74
2022/12/22 09:54:12;;;;;;;14.07;10.63;;;;;;;4.32;100.00;96324.16;5030969;28;20216;-74
2022/12/22 09:56:40;;;;;;;11.50;10.40;;;;;;;4.40;100.00;96323.31;5025019;28;20736;-74
2022/12/22 09:59:11;;;;;;;15.43;11.50;;;;;;;4.50;100.00;96325.78;4985790;28;20594;-74
2022/12/22 10:01:47;;;;;;;11.40;10.20;;;;;;;4.57;100.00;96315.44;5023341;28;20330;-73
2022/12/22 10:04:22;;;;;;;11.23;10.17;;;;;;;4.62;100.00;96297.38;5027610;28;20235;-73
2022/12/22 10:06:56;;;;;;;13.37;10.00;;;;;;;4.78;100.00;96307.03;5023438;28;20603;-73
2022/12/22 10:09:27;;;;;;;11.50;9.87;;;;;;;4.92;100.00;96319.44;5027908;28;20282;-71
2022/12/22 10:12:16;;;;;;;11.03;9.80;;;;;;;5.08;100.00;96315.09;5026584;28;20210;-72
2022/12/22 10:14:47;;;;;;;12.17;9.83;;;;;;;5.18;100.00;96313.09;4979244;28;20504;-74
2022/12/22 10:17:16;;;;;;;9.67;8.77;;;;;;;5.32;100.00;96316.81;5025699;28;20209;-73
2022/12/22 10:19:44;;;;;;;9.90;8.90;;;;;;;5.38;100.00;96312.66;5024075;28;20421;-73
2022/12/22 10:22:21;;;;;;;13.57;9.20;;;;;;;5.52;100.00;96303.22;5026706;28;20488;-74
2022/12/22 10:24:49;;;;;;;10.30;9.20;;;;;;;5.63;100.00;96307.28;5026416;28;20681;-74
2022/12/22 10:27:17;;;;;;;10.50;9.40;;;;;;;5.73;100.00;96297.34;5029950;28;20200;-75
2022/12/22 10:29:49;;;;;;;8.63;7.60;;;;;;;5.89;100.00;96296.41;4984845;28;21065;-73
2022/12/22 10:32:19;;;;;;;7.77;6.93;;;;;;;5.96;100.00;96291.28;5027225;28;20207;-72
2022/12/22 10:34:59;;;;;;;6.60;6.10;;;;;;;6.09;100.00;96295.97;4975541;28;20265;-74
2022/12/22 10:37:32;;;;;;;6.43;5.90;;;;;;;6.17;100.00;96295.88;5024503;28;20215;-72
2022/12/22 10:39:59;;;;;;;6.17;5.20;;;;;;;6.40;100.00;96294.22;5027451;28;20203;-72
2022/12/22 10:42:27;;;;;;;5.93;5.33;;;;;;;6.42;100.00;96297.47;5009535;28;20397;-72
2022/12/22 10:44:57;;;;;;;4.70;4.20;;;;;;;6.35;100.00;96300.81;5027812;28;20228;-71
2022/12/22 10:47:25;;;;;;;5.23;4.50;;;;;;;6.39;100.00;96293.38;5009739;28;20441;-74
2022/12/22 10:49:56;;;;;;;4.43;4.03;;;;;;;6.43;100.00;96293.84;4986581;28;20215;-73
2022/12/22 10:52:24;;;;;;;5.63;4.30;;;;;;;6.43;100.00;96294.66;5024339;28;20496;-73
2022/12/22 10:55:15;;;;;;;5.00;4.50;;;;;;;6.44;100.00;96290.22;5028353;28;20566;-71
2022/12/22 10:57:43;;;;;;;5.10;4.60;;;;;;;6.29;100.00;96283.13;5031141;28;20216;-74
2022/12/22 11:00:26;;;;;;;5.87;4.60;;;;;;;6.22;100.00;96284.81;5030558;28;20207;-71
2022/12/22 11:02:55;;;;;;;5.93;5.07;;;;;;;6.13;100.00;96283.25;5030840;28;20203;-74
2022/12/22 11:05:23;;;;;;;5.50;4.57;;;;;;;6.17;100.00;96285.38;4973112;28;20532;-73
2022/12/22 11:07:50;;;;;;;6.43;4.60;;;;;;;6.25;100.00;96278.41;5027501;28;20207;-73
2022/12/22 11:10:23;;;;;;;6.20;4.50;;;;;;;6.26;100.00;96285.28;5030653;28;20481;-74
2022/12/22 11:13:01;;;;;;;6.13;5.37;;;;;;;6.46;100.00;96288.22;5031503;28;20195;-73
2022/12/22 11:15:34;;;;;;;5.70;5.17;;;;;;;6.36;100.00;96272.69;5031938;28;20754;-71
2022/12/22 11:18:12;;;;;;;5.50;4.57;;;;;;;6.24;100.00;96277.56;5020756;28;20239;-71
2022/12/22 11:20:47;;;;;;;5.43;4.80;;;;;;;6.19;100.00;96278.13;4987391;28;20618;-72
2022/12/22 11:23:17;;;;;;;5.47;4.97;;;;;;;6.13;100.00;96264.84;5026433;28;20209;-74
2022/12/22 11:25:51;;;;;;;7.03;5.40;;;;;;;6.34;100.00;96265.00;5031607;28;20219;-73
2022/12/22 11:28:33;;;;;;;6.83;4.97;;;;;;;6.43;100.00;96255.19;5026089;28;20401;-70
2022/12/22 11:31:12;;;;;;;6.07;5.43;;;;;;;6.58;100.00;96255.19;5030126;28;20210;-71
2022/12/22 11:33:50;;;;;;;6.83;5.33;;;;;;;6.45;100.00;96245.31;5031266;28;20312;-72
2022/12/22 11:36:27;;;;;;;6.77;4.53;;;;;;;6.44;100.00;96264.72;4961516;28;20219;-74
2022/12/22 11:39:00;;;;;;;5.00;4.20;;;;;;;6.50;100.00;96253.47;5028013;28;20234;-73
2022/12/22 11:41:38;;;;;;;6.63;3.90;;;;;;;6.56;100.00;96246.66;5030189;28;20204;-74
2022/12/22 11:44:18;;;;;;;5.50;3.57;;;;;;;6.61;100.00;96239.03;5031350;28;20227;-72
2022/12/22 11:46:50;;;;;;;4.83;3.10;;;;;;;6.74;100.00;96238.38;5030174;28;20231;-73
2022/12/22 11:49:31;;;;;;;3.40;2.57;;;;;;;6.85;100.00;96236.31;5010467;28;20215;-71
2022/12/22 11:52:10;;;;;;;4.73;3.00;;;;;;;6.88;100.00;96228.84;4979120;28;20316;-71
2022/12/22 11:54:49;;;;;;;3.13;2.87;;;;;;;6.94;100.00;96232.56;5032049;28;20223;-71
2022/12/22 11:57:24;;;;;;;4.10;2.93;;;;;;;6.88;100.00;96230.69;5028017;28;20203;-73
2022/12/22 11:59:58;;;;;;;3.17;2.27;;;;;;;6.87;100.00;96236.94;5031260;28;20298;-70
2022/12/22 12:02:44;;;;;;;3.90;2.83;;;;;;;6.91;100.00;96231.09;5028470;28;20336;-73
2022/12/22 12:05:26;;;;;;;5.93;3.03;;;;;;;6.97;100.00;96239.25;5012041;28;20228;-71
2022/12/22 12:07:58;;;;;;;3.37;2.40;;;;;;;7.02;100.00;96229.03;4983641;28;20219;-73
2022/12/22 12:10:28;;;;;;;2.70;2.50;;;;;;;7.10;100.00;96237.59;5029292;28;20402;-73
2022/12/22 12:13:03;;;;;;;3.07;2.43;;;;;;;7.22;100.00;96224.78;5029152;28;20314;-72
2022/12/22 12:15:33;;;;;;;3.13;2.37;;;;;;;7.21;100.00;96220.50;5028886;28;20234;-73
2022/12/22 12:18:22;;;;;;;4.03;2.40;;;;;;;7.27;100.00;96221.59;5028314;28;20796;-71
2022/12/22 12:20:58;;;;;;;3.13;2.23;;;;;;;7.25;100.00;96218.31;5013616;28;20211;-73
2022/12/22 12:23:39;;;;;;;7.40;2.60;;;;;;;7.29;100.00;96229.28;4982398;28;20254;-71
2022/12/22 12:26:11;;;;;;;3.83;2.23;;;;;;;7.33;100.00;96226.09;5026263;28;20219;-71
2022/12/22 12:28:47;;;;;;;2.50;2.07;;;;;;;7.31;100.00;96216.75;5030845;28;20947;-72
2022/12/22 12:31:17;;;;;;;4.10;2.10;;;;;;;7.26;100.00;96211.22;5021839;28;20215;-73
2022/12/22 12:33:57;;;;;;;3.07;2.27;;;;;;;7.18;100.00;96218.25;5029299;28;20306;-73
2022/12/22 12:36:31;;;;;;;1.77;1.67;;;;;;;7.13;100.00;96215.38;5009538;28;20214;-72
2022/12/22 12:39:04;;;;;;;2.10;1.90;;;;;;;7.13;100.00;96214.53;4989210;28;20219;-71
2022/12/22 12:41:52;;;;;;;3.93;2.70;;;;;;;7.17;100.00;96216.63;5013098;28;20629;-71
2022/12/22 12:44:24;;;;;;;4.53;2.10;;;;;;;7.19;100.00;96217.25;5025012;28;20683;-72
2022/12/22 12:47:14;;;;;;;4.80;1.87;;;;;;;7.11;100.00;96212.09;5024371;28;20232;-74
2022/12/22 12:49:54;;;;;;;2.80;2.13;;;;;;;7.11;100.00;96222.63;5015704;28;20481;-72
2022/12/22 12:53:08;;;;;;;1.90;1.80;;;;;;;7.09;100.00;96219.38;5028902;28;20218;-73
2022/12/22 12:55:51;;;;;;;2.90;1.73;;;;;;;7.00;100.00;96215.19;4966344;28;20235;-71
2022/12/22 12:58:47;;;;;;;3.73;1.63;;;;;;;6.93;100.00;96226.47;4999608;28;20219;-74
2022/12/22 13:01:54;;;;;;;3.00;2.23;;;;;;;6.86;100.00;96214.25;5029148;28;20518;-73
2022/12/22 13:05:14;;;;;;;3.63;2.63;;;;;;;6.77;100.00;96222.22;5027390;28;20227;-73
2022/12/22 13:08:15;;;;;;;4.20;2.17;;;;;;;6.69;100.00;96235.50;5020199;28;20238;-71
2022/12/22 13:10:45;;;;;;;2.33;2.07;;;;;;;6.58;100.00;96233.31;5008902;28;20207;-71
2022/12/22 13:13:46;;;;;;;3.37;1.90;;;;;;;6.42;100.00;96245.66;4990266;28;20474;-72
2022/12/22 13:16:36;;;;;;;5.70;2.20;;;;;;;6.39;100.00;96258.38;4988893;28;1099231;-73
2022/12/22 13:19:11;;;;;;;3.00;2.23;;;;;;;6.31;100.00;96260.09;5005238;28;20429;-69
2022/12/22 13:21:41;;;;;;;3.80;2.10;;;;;;;6.28;100.00;96275.41;5024620;28;20325;-72
2022/12/22 13:24:25;;;;;;;5.50;2.57;;;;;;;6.19;100.00;96269.38;5022273;28;20950;-71
2022/12/22 13:27:12;;;;;;;2.73;2.40;;;;;;;6.18;100.00;96265.13;5024135;28;20227;-73
2022/12/22 13:29:43;;;;;;;3.63;2.87;;;;;;;6.15;100.00;96268.94;4983473;28;20220;-72
2022/12/22 13:32:19;;;;;;;7.67;3.03;;;;;;;6.14;100.00;96266.47;5027924;28;20781;-72
2022/12/22 13:34:48;;;;;;;4.30;3.00;;;;;;;6.14;100.00;96266.47;5025354;28;20630;-72
2022/12/22 13:37:41;;;;;;;3.37;2.27;;;;;;;6.18;100.00;96270.38;5019532;28;20464;-72
2022/12/22 13:40:17;;;;;;;4.50;2.17;;;;;;;6.22;100.00;96271.66;5013644;28;20208;-73
2022/12/22 13:42:47;;;;;;;4.20;2.67;;;;;;;6.26;100.00;96280.03;5022072;28;20207;-71
2022/12/22 13:45:29;;;;;;;3.57;2.83;;;;;;;6.22;100.00;96279.56;4988090;28;20227;-71
2022/12/22 13:47:57;;;;;;;4.60;3.40;;;;;;;6.21;100.00;96278.75;5027147;28;20219;-71
2022/12/22 13:50:26;;;;;;;2.37;2.17;;;;;;;6.22;100.00;96280.38;5024380;28;20214;-73
2022/12/22 13:52:55;;;;;;;5.50;2.93;;;;;;;6.25;100.00;96278.41;5005453;28;20207;-71
2022/12/22 13:55:26;;;;;;;5.57;2.73;;;;;;;6.26;100.00;96278.22;5012068;28;20272;-73
2022/12/22 13:57:54;;;;;;;3.53;2.40;;;;;;;6.29;100.00;96277.88;5021686;28;20191;-70
2022/12/22 14:00:26;;;;;;;3.60;2.20;;;;;;;6.27;100.00;96279.88;4988511;28;20310;-73
2022/12/22 14:02:53;;;;;;;4.43;2.93;;;;;;;6.27;100.00;96279.88;5022837;28;20295;-71
2022/12/22 14:05:21;;;;;;;3.57;3.17;;;;;;;6.22;100.00;96279.56;5029555;28;20231;-73
2022/12/22 14:08:02;;;;;;;4.23;2.83;;;;;;;6.16;100.00;96269.75;5023536;28;20533;-70
2022/12/22 14:10:34;;;;;;;3.17;2.93;;;;;;;6.17;100.00;96280.09;5030079;28;20210;-72
2022/12/22 14:13:05;;;;;;;2.37;2.27;;;;;;;6.20;100.00;96278.91;4997070;28;20718;-70
2022/12/22 14:15:33;;;;;;;3.03;2.60;;;;;;;6.16;100.00;96270.59;4979536;28;20240;-73
2022/12/22 14:18:01;;;;;;;3.63;2.70;;;;;;;6.17;100.00;96284.53;5025572;28;20206;-71
2022/12/22 14:20:34;;;;;;;6.07;2.47;;;;;;;6.14;100.00;96290.16;5024166;28;20204;-71
2022/12/22 14:23:06;;;;;;;3.97;2.50;;;;;;;6.16;100.00;96288.16;5021097;28;20302;-70
2022/12/22 14:25:36;;;;;;;3.30;2.97;;;;;;;6.12;100.00;96285.09;5028359;28;20305;-72
2022/12/22 14:28:06;;;;;;;5.57;3.10;;;;;;;6.14;100.00;96298.03;5009224;28;20927;-72
2022/12/22 14:30:35;;;;;;;4.70;2.60;;;;;;;6.13;100.00;96296.41;4970321;28;20208;-72
2022/12/22 14:33:17;;;;;;;3.17;2.37;;;;;;;6.11;100.00;96298.41;5023367;28;20838;-71
2022/12/22 14:35:44;;;;;;;4.93;2.47;;;;;;;6.11;100.00;96306.28;5026536;28;20550;-71
2022/12/22 14:38:23;;;;;;;2.20;2.10;;;;;;;6.11;100.00;96304.50;5018139;28;20218;-73
2022/12/22 14:40:53;;;;;;;5.57;2.70;;;;;;;6.11;100.00;96301.88;5016850;28;20494;-72
2022/12/22 14:43:29;;;;;;;6.63;2.80;;;;;;;6.12;100.00;96310.56;5010267;28;20208;-74
2022/12/22 14:46:05;;;;;;;3.63;2.97;;;;;;;6.11;100.00;96316.81;4962796;28;20215;-72
2022/12/22 14:48:35;;;;;;;4.10;2.90;;;;;;;6.11;100.00;96314.19;5026927;28;20231;-74
2022/12/22 14:51:03;;;;;;;4.77;2.87;;;;;;;6.03;100.00;96310.63;4957110;28;20885;-73
2022/12/22 14:53:37;;;;;;;5.83;2.80;;;;;;;6.02;100.00;96316.88;5024082;28;20586;-72
2022/12/22 14:56:10;;;;;;;3.77;3.43;;;;;;;6.05;100.00;96321.78;5028848;28;20202;-75
2022/12/22 14:58:40;;;;;;;2.37;2.17;;;;;;;6.06;100.00;96326.06;5004305;28;20212;-70
2022/12/22 15:01:15;;;;;;;2.10;2.00;;;;;;;6.07;100.00;96321.63;5026137;28;20218;-72
2022/12/22 15:03:43;;;;;;;3.00;2.53;;;;;;;6.14;100.00;96334.88;5025776;28;20602;-72
2022/12/22 15:06:33;;;;;;;6.13;2.70;;;;;;;6.15;100.00;96336.50;4959855;28;20663;-72
2022/12/22 15:09:25;;;;;;;3.47;2.20;;;;;;;6.18;100.00;96344.03;5019377;28;20200;-72
2022/12/22 15:12:16;;;;;;;4.07;2.47;;;;;;;6.16;100.00;96335.50;5007423;28;21010;-73
2022/12/22 15:14:46;;;;;;;2.03;1.93;;;;;;;6.26;100.00;96341.38;5020246;28;20227;-74
2022/12/22 15:17:19;;;;;;;3.03;2.03;;;;;;;6.26;100.00;96336.09;5020446;28;20219;-74
2022/12/22 15:19:47;;;;;;;2.70;2.00;;;;;;;6.23;100.00;96344.31;5027500;28;20211;-73
2022/12/22 15:22:15;;;;;;;1.63;1.53;;;;;;;6.27;100.00;96355.31;4963901;28;20746;-73
2022/12/22 15:24:42;;;;;;;3.60;1.47;;;;;;;6.29;100.00;96355.97;5026323;28;20220;-73